Pagrindinis puslapis
METAR-TAF:

METAR-TAF

Oro uostai :

Bušehras, Iranas

platuma: 28-59N, ilguma: 050-50E, Aukštis: 19 m

Dabartinis oras

Ataskaita buvo paskelbta 2 valandos ir 9 minutes, ne 21:00 UTC
Ramus vėjas
Temperatūra 19°C
Drėgmė 52%
Slėgis 1014 hPa
Matomumas 10 km arba daugiau
nėra debesų žemiau 1500 m ir nėra kamuolinių lietaus debesų

METAR: OIBB 302100Z 00000KT CAVOK 19/09 Q1014 A2995

Laikas: 03:39 (23:09 UTC)


TAF: trūkstamas

Orai ataskaitas ir orų prognozės (METAR, TAF).

turimą stotys yra geltonos ir raudonos taškus žemėlapyje.

Perkelti pele per norėdami pamatyti stoties vardą.

Tada spustelėkite, norėdami matyti oro stebėjimo ir prognozės.

Norėdami pakeisti žemėlapį: spustelėkite ant žalios mygtukų su juodo kryžiaus žemyn,; žalią mygtuką su brūkšneliu, jei norite nutolinti; arba žalių rodyklių gretimoms žemėlapius.


METAR-TAF: